sensor_id;sensor_type;location;lat;lon;timestamp;temperature;humidity
75091;DHT22;63674;48.048;8.306;2023-02-11T00:01:36;-5.90;99.90
75091;DHT22;63674;48.048;8.306;2023-02-11T00:04:05;-6.00;99.90
75091;DHT22;63674;48.048;8.306;2023-02-11T00:06:35;-6.10;99.90
75091;DHT22;63674;48.048;8.306;2023-02-11T00:09:04;-6.20;99.90
75091;DHT22;63674;48.048;8.306;2023-02-11T00:11:33;-6.20;99.90
75091;DHT22;63674;48.048;8.306;2023-02-11T00:14:04;-6.20;99.90
75091;DHT22;63674;48.048;8.306;2023-02-11T00:16:34;-6.20;99.90
75091;DHT22;63674;48.048;8.306;2023-02-11T00:19:23;-6.20;99.90
75091;DHT22;63674;48.048;8.306;2023-02-11T00:21:52;-6.10;99.90
75091;DHT22;63674;48.048;8.306;2023-02-11T00:24:20;-6.20;99.90
75091;DHT22;63674;48.048;8.306;2023-02-11T00:26:49;-6.20;99.90
75091;DHT22;63674;48.048;8.306;2023-02-11T00:29:18;-6.30;99.90
75091;DHT22;63674;48.048;8.306;2023-02-11T00:31:47;-6.30;99.90
75091;DHT22;63674;48.048;8.306;2023-02-11T00:34:16;-6.30;99.90
75091;DHT22;63674;48.048;8.306;2023-02-11T00:36:44;-6.30;99.90
75091;DHT22;63674;48.048;8.306;2023-02-11T00:39:13;-6.30;99.90
75091;DHT22;63674;48.048;8.306;2023-02-11T00:41:41;-6.40;99.90
75091;DHT22;63674;48.048;8.306;2023-02-11T00:44:10;-6.50;99.90
75091;DHT22;63674;48.048;8.306;2023-02-11T00:46:40;-6.40;99.90
75091;DHT22;63674;48.048;8.306;2023-02-11T00:49:08;-6.40;99.90
75091;DHT22;63674;48.048;8.306;2023-02-11T00:51:37;-6.30;99.90
75091;DHT22;63674;48.048;8.306;2023-02-11T00:54:05;-6.30;99.90
75091;DHT22;63674;48.048;8.306;2023-02-11T00:56:34;-6.40;99.90
75091;DHT22;63674;48.048;8.306;2023-02-11T00:59:03;-6.40;99.90
75091;DHT22;63674;48.048;8.306;2023-02-11T01:01:31;-6.40;99.90
75091;DHT22;63674;48.048;8.306;2023-02-11T01:04:03;-6.40;99.90
75091;DHT22;63674;48.048;8.306;2023-02-11T01:06:31;-6.40;99.90
75091;DHT22;63674;48.048;8.306;2023-02-11T01:09:00;-6.40;99.90
75091;DHT22;63674;48.048;8.306;2023-02-11T01:11:28;-6.40;99.90
75091;DHT22;63674;48.048;8.306;2023-02-11T01:13:58;-6.50;99.90
75091;DHT22;63674;48.048;8.306;2023-02-11T01:16:26;-6.50;99.90
75091;DHT22;63674;48.048;8.306;2023-02-11T01:18:55;-6.50;99.90
75091;DHT22;63674;48.048;8.306;2023-02-11T01:21:26;-6.50;99.90
75091;DHT22;63674;48.048;8.306;2023-02-11T01:23:54;-6.50;99.90
75091;DHT22;63674;48.048;8.306;2023-02-11T01:26:23;-6.50;99.90
75091;DHT22;63674;48.048;8.306;2023-02-11T01:28:52;-6.50;99.90
75091;DHT22;63674;48.048;8.306;2023-02-11T01:31:20;-6.50;99.90
75091;DHT22;63674;48.048;8.306;2023-02-11T01:33:49;-6.60;99.90
75091;DHT22;63674;48.048;8.306;2023-02-11T01:36:17;-6.60;99.90
75091;DHT22;63674;48.048;8.306;2023-02-11T01:38:47;-6.70;99.90
75091;DHT22;63674;48.048;8.306;2023-02-11T01:41:16;-6.70;99.90
75091;DHT22;63674;48.048;8.306;2023-02-11T01:43:48;-6.60;99.90
75091;DHT22;63674;48.048;8.306;2023-02-11T01:46:25;-6.60;99.90
75091;DHT22;63674;48.048;8.306;2023-02-11T01:49:00;-6.60;99.90
75091;DHT22;63674;48.048;8.306;2023-02-11T01:51:35;-6.70;99.90
75091;DHT22;63674;48.048;8.306;2023-02-11T01:54:10;-6.70;99.90
75091;DHT22;63674;48.048;8.306;2023-02-11T01:56:58;-6.70;99.90
75091;DHT22;63674;48.048;8.306;2023-02-11T01:59:49;-6.70;99.90
75091;DHT22;63674;48.048;8.306;2023-02-11T02:02:28;-6.80;99.90
75091;DHT22;63674;48.048;8.306;2023-02-11T02:05:04;-6.80;99.90
75091;DHT22;63674;48.048;8.306;2023-02-11T02:07:41;-6.80;99.90
75091;DHT22;63674;48.048;8.306;2023-02-11T02:10:20;-6.80;99.90
75091;DHT22;63674;48.048;8.306;2023-02-11T02:12:50;-6.80;99.90
75091;DHT22;63674;48.048;8.306;2023-02-11T02:15:37;-6.90;99.90
75091;DHT22;63674;48.048;8.306;2023-02-11T02:18:17;-6.80;99.90
75091;DHT22;63674;48.048;8.306;2023-02-11T02:21:21;-6.80;99.90
75091;DHT22;63674;48.048;8.306;2023-02-11T02:24:38;-6.80;99.90
75091;DHT22;63674;48.048;8.306;2023-02-11T02:27:33;-6.90;99.90
75091;DHT22;63674;48.048;8.306;2023-02-11T02:33:38;-6.90;99.90
75091;DHT22;63674;48.048;8.306;2023-02-11T02:36:15;-6.90;99.90
75091;DHT22;63674;48.048;8.306;2023-02-11T02:38:52;-7.00;99.90
75091;DHT22;63674;48.048;8.306;2023-02-11T02:41:24;-7.20;99.90
75091;DHT22;63674;48.048;8.306;2023-02-11T02:43:55;-7.00;99.90
75091;DHT22;63674;48.048;8.306;2023-02-11T02:46:25;-7.00;99.90
75091;DHT22;63674;48.048;8.306;2023-02-11T02:48:58;-6.90;99.90
75091;DHT22;63674;48.048;8.306;2023-02-11T02:51:44;-7.00;99.90
75091;DHT22;63674;48.048;8.306;2023-02-11T02:54:46;-7.00;99.90
75091;DHT22;63674;48.048;8.306;2023-02-11T02:57:37;-6.80;99.90
75091;DHT22;63674;48.048;8.306;2023-02-11T03:00:16;-6.80;99.90
75091;DHT22;63674;48.048;8.306;2023-02-11T03:03:03;-6.80;99.90
75091;DHT22;63674;48.048;8.306;2023-02-11T03:05:48;-6.90;99.90
75091;DHT22;63674;48.048;8.306;2023-02-11T03:08:26;-6.90;99.90
75091;DHT22;63674;48.048;8.306;2023-02-11T03:10:58;-7.00;99.90
75091;DHT22;63674;48.048;8.306;2023-02-11T03:13:30;-7.00;99.90
75091;DHT22;63674;48.048;8.306;2023-02-11T03:16:03;-6.90;99.90
75091;DHT22;63674;48.048;8.306;2023-02-11T03:18:38;-7.00;99.90
75091;DHT22;63674;48.048;8.306;2023-02-11T03:21:11;-7.10;99.90
75091;DHT22;63674;48.048;8.306;2023-02-11T03:23:43;-7.10;99.90
75091;DHT22;63674;48.048;8.306;2023-02-11T03:26:22;-7.10;99.90
75091;DHT22;63674;48.048;8.306;2023-02-11T03:28:56;-7.20;99.90
75091;DHT22;63674;48.048;8.306;2023-02-11T03:31:33;-7.20;99.90
75091;DHT22;63674;48.048;8.306;2023-02-11T03:34:08;-7.10;99.90
75091;DHT22;63674;48.048;8.306;2023-02-11T03:36:43;-7.10;99.90
75091;DHT22;63674;48.048;8.306;2023-02-11T03:39:16;-7.10;99.90
75091;DHT22;63674;48.048;8.306;2023-02-11T03:41:47;-7.00;99.90
75091;DHT22;63674;48.048;8.306;2023-02-11T03:44:18;-6.90;99.90
75091;DHT22;63674;48.048;8.306;2023-02-11T03:46:49;-7.00;99.90
75091;DHT22;63674;48.048;8.306;2023-02-11T03:49:21;-7.00;99.90
75091;DHT22;63674;48.048;8.306;2023-02-11T03:51:52;-7.00;99.90
75091;DHT22;63674;48.048;8.306;2023-02-11T03:54:27;-7.00;99.90
75091;DHT22;63674;48.048;8.306;2023-02-11T03:56:58;-7.10;99.90
75091;DHT22;63674;48.048;8.306;2023-02-11T03:59:28;-7.00;99.90
75091;DHT22;63674;48.048;8.306;2023-02-11T04:01:57;-7.00;99.90
75091;DHT22;63674;48.048;8.306;2023-02-11T04:04:26;-7.00;99.90
75091;DHT22;63674;48.048;8.306;2023-02-11T04:06:56;-7.00;99.90
75091;DHT22;63674;48.048;8.306;2023-02-11T04:09:25;-7.10;99.90
75091;DHT22;63674;48.048;8.306;2023-02-11T04:11:53;-7.10;99.90
75091;DHT22;63674;48.048;8.306;2023-02-11T04:14:22;-7.10;99.90
75091;DHT22;63674;48.048;8.306;2023-02-11T04:16:50;-7.10;99.90
75091;DHT22;63674;48.048;8.306;2023-02-11T04:19:19;-7.10;99.90
75091;DHT22;63674;48.048;8.306;2023-02-11T04:21:47;-7.10;99.90
75091;DHT22;63674;48.048;8.306;2023-02-11T04:24:17;-7.00;99.90
75091;DHT22;63674;48.048;8.306;2023-02-11T04:26:46;-7.20;99.90
75091;DHT22;63674;48.048;8.306;2023-02-11T04:29:14;-7.10;99.90
75091;DHT22;63674;48.048;8.306;2023-02-11T04:31:43;-7.10;99.90
75091;DHT22;63674;48.048;8.306;2023-02-11T04:34:11;-7.10;99.90
75091;DHT22;63674;48.048;8.306;2023-02-11T04:36:40;-7.00;99.90
75091;DHT22;63674;48.048;8.306;2023-02-11T04:39:09;-7.00;99.90
75091;DHT22;63674;48.048;8.306;2023-02-11T04:41:39;-7.00;99.90
75091;DHT22;63674;48.048;8.306;2023-02-11T04:44:07;-7.00;99.90
75091;DHT22;63674;48.048;8.306;2023-02-11T04:46:36;-6.90;99.90
75091;DHT22;63674;48.048;8.306;2023-02-11T04:49:05;-6.90;99.90
75091;DHT22;63674;48.048;8.306;2023-02-11T04:51:33;-6.90;99.90
75091;DHT22;63674;48.048;8.306;2023-02-11T04:54:02;-6.90;99.90
75091;DHT22;63674;48.048;8.306;2023-02-11T04:59:01;-7.00;99.90
75091;DHT22;63674;48.048;8.306;2023-02-11T05:01:31;-7.10;99.90
75091;DHT22;63674;48.048;8.306;2023-02-11T05:04:00;-7.10;99.90
75091;DHT22;63674;48.048;8.306;2023-02-11T05:06:28;-7.00;99.90
75091;DHT22;63674;48.048;8.306;2023-02-11T05:08:57;-7.00;99.90
75091;DHT22;63674;48.048;8.306;2023-02-11T05:11:26;-7.20;99.90
75091;DHT22;63674;48.048;8.306;2023-02-11T05:13:54;-7.10;99.90
75091;DHT22;63674;48.048;8.306;2023-02-11T05:16:24;-7.10;99.90
75091;DHT22;63674;48.048;8.306;2023-02-11T05:18:52;-7.10;99.90
75091;DHT22;63674;48.048;8.306;2023-02-11T05:21:21;-7.10;99.90
75091;DHT22;63674;48.048;8.306;2023-02-11T05:23:51;-7.20;99.90
75091;DHT22;63674;48.048;8.306;2023-02-11T05:26:19;-7.20;99.90
75091;DHT22;63674;48.048;8.306;2023-02-11T05:28:48;-7.40;99.90
75091;DHT22;63674;48.048;8.306;2023-02-11T05:31:17;-7.40;99.90
75091;DHT22;63674;48.048;8.306;2023-02-11T05:33:47;-7.40;99.90
75091;DHT22;63674;48.048;8.306;2023-02-11T05:36:15;-7.40;99.90
75091;DHT22;63674;48.048;8.306;2023-02-11T05:38:44;-7.30;99.90
75091;DHT22;63674;48.048;8.306;2023-02-11T05:41:14;-7.30;99.90
75091;DHT22;63674;48.048;8.306;2023-02-11T05:43:43;-7.30;99.90
75091;DHT22;63674;48.048;8.306;2023-02-11T05:46:11;-7.30;99.90
75091;DHT22;63674;48.048;8.306;2023-02-11T05:48:40;-7.30;99.90
75091;DHT22;63674;48.048;8.306;2023-02-11T05:51:10;-7.30;99.90
75091;DHT22;63674;48.048;8.306;2023-02-11T05:53:38;-7.20;99.90
75091;DHT22;63674;48.048;8.306;2023-02-11T05:56:07;-7.30;99.90
75091;DHT22;63674;48.048;8.306;2023-02-11T05:58:36;-7.30;99.90
75091;DHT22;63674;48.048;8.306;2023-02-11T06:01:05;-7.30;99.90
75091;DHT22;63674;48.048;8.306;2023-02-11T06:03:34;-7.30;99.90
75091;DHT22;63674;48.048;8.306;2023-02-11T06:06:03;-7.40;99.90
75091;DHT22;63674;48.048;8.306;2023-02-11T06:08:34;-7.30;99.90
75091;DHT22;63674;48.048;8.306;2023-02-11T06:11:05;-7.30;99.90
75091;DHT22;63674;48.048;8.306;2023-02-11T06:13:34;-7.20;99.90
75091;DHT22;63674;48.048;8.306;2023-02-11T06:16:03;-7.20;99.90
75091;DHT22;63674;48.048;8.306;2023-02-11T06:18:32;-7.20;99.90
75091;DHT22;63674;48.048;8.306;2023-02-11T06:21:00;-7.20;99.90
75091;DHT22;63674;48.048;8.306;2023-02-11T06:23:29;-7.30;99.90
75091;DHT22;63674;48.048;8.306;2023-02-11T06:26:02;-7.10;99.90
75091;DHT22;63674;48.048;8.306;2023-02-11T06:28:32;-7.10;99.90
75091;DHT22;63674;48.048;8.306;2023-02-11T06:31:04;-7.00;99.90
75091;DHT22;63674;48.048;8.306;2023-02-11T06:33:34;-7.00;99.90
75091;DHT22;63674;48.048;8.306;2023-02-11T06:36:04;-6.90;99.90
75091;DHT22;63674;48.048;8.306;2023-02-11T06:38:37;-6.90;99.90
75091;DHT22;63674;48.048;8.306;2023-02-11T06:41:09;-6.80;99.90
75091;DHT22;63674;48.048;8.306;2023-02-11T06:43:38;-6.60;99.90
75091;DHT22;63674;48.048;8.306;2023-02-11T06:46:07;-6.50;99.90
75091;DHT22;63674;48.048;8.306;2023-02-11T06:48:36;-6.40;99.90
75091;DHT22;63674;48.048;8.306;2023-02-11T06:51:06;-6.40;99.90
75091;DHT22;63674;48.048;8.306;2023-02-11T06:53:39;-6.30;99.90
75091;DHT22;63674;48.048;8.306;2023-02-11T06:56:13;-6.30;99.90
75091;DHT22;63674;48.048;8.306;2023-02-11T06:58:42;-6.20;99.90
75091;DHT22;63674;48.048;8.306;2023-02-11T07:01:12;-6.20;99.90
75091;DHT22;63674;48.048;8.306;2023-02-11T07:03:44;-6.00;99.90
75091;DHT22;63674;48.048;8.306;2023-02-11T07:06:14;-5.90;99.90
75091;DHT22;63674;48.048;8.306;2023-02-11T07:08:46;-5.80;99.90
75091;DHT22;63674;48.048;8.306;2023-02-11T07:11:18;-5.80;99.90
75091;DHT22;63674;48.048;8.306;2023-02-11T07:13:47;-5.70;99.90
75091;DHT22;63674;48.048;8.306;2023-02-11T07:16:18;-5.70;99.90
75091;DHT22;63674;48.048;8.306;2023-02-11T07:18:47;-5.70;99.90
75091;DHT22;63674;48.048;8.306;2023-02-11T07:21:18;-5.60;99.90
75091;DHT22;63674;48.048;8.306;2023-02-11T07:23:47;-5.60;99.90
75091;DHT22;63674;48.048;8.306;2023-02-11T07:26:20;-5.50;99.90
75091;DHT22;63674;48.048;8.306;2023-02-11T07:28:49;-5.40;99.90
75091;DHT22;63674;48.048;8.306;2023-02-11T07:31:20;-5.30;99.90
75091;DHT22;63674;48.048;8.306;2023-02-11T07:33:51;-5.20;99.90
75091;DHT22;63674;48.048;8.306;2023-02-11T07:36:21;-5.10;99.90
75091;DHT22;63674;48.048;8.306;2023-02-11T07:38:50;-5.10;99.90
75091;DHT22;63674;48.048;8.306;2023-02-11T07:41:21;-5.00;99.90
75091;DHT22;63674;48.048;8.306;2023-02-11T07:43:50;-5.00;99.90
75091;DHT22;63674;48.048;8.306;2023-02-11T07:46:20;-4.90;99.90
75091;DHT22;63674;48.048;8.306;2023-02-11T07:48:50;-4.80;99.90
75091;DHT22;63674;48.048;8.306;2023-02-11T07:51:21;-4.60;99.90
75091;DHT22;63674;48.048;8.306;2023-02-11T07:53:51;-4.70;99.90
75091;DHT22;63674;48.048;8.306;2023-02-11T07:56:22;-4.50;99.90
75091;DHT22;63674;48.048;8.306;2023-02-11T07:58:51;-4.40;99.90
75091;DHT22;63674;48.048;8.306;2023-02-11T08:01:22;-4.30;99.90
75091;DHT22;63674;48.048;8.306;2023-02-11T08:03:55;-4.30;99.90
75091;DHT22;63674;48.048;8.306;2023-02-11T08:06:26;-4.30;99.90
75091;DHT22;63674;48.048;8.306;2023-02-11T08:08:55;-4.30;99.90
75091;DHT22;63674;48.048;8.306;2023-02-11T08:11:26;-4.20;99.90
75091;DHT22;63674;48.048;8.306;2023-02-11T08:13:56;-4.10;99.90
75091;DHT22;63674;48.048;8.306;2023-02-11T08:16:26;-4.00;99.90
75091;DHT22;63674;48.048;8.306;2023-02-11T08:18:57;-3.70;99.90
75091;DHT22;63674;48.048;8.306;2023-02-11T08:21:27;-3.70;99.90
75091;DHT22;63674;48.048;8.306;2023-02-11T08:23:56;-3.60;99.90
75091;DHT22;63674;48.048;8.306;2023-02-11T08:26:28;-3.70;99.90
75091;DHT22;63674;48.048;8.306;2023-02-11T08:28:57;-3.50;99.90
75091;DHT22;63674;48.048;8.306;2023-02-11T08:31:28;-3.50;99.90
75091;DHT22;63674;48.048;8.306;2023-02-11T08:33:59;-3.40;99.90
75091;DHT22;63674;48.048;8.306;2023-02-11T08:36:29;-3.40;99.90
75091;DHT22;63674;48.048;8.306;2023-02-11T08:39:00;-3.30;99.90
75091;DHT22;63674;48.048;8.306;2023-02-11T08:41:47;-3.30;99.90
75091;DHT22;63674;48.048;8.306;2023-02-11T08:44:16;-3.30;99.90
75091;DHT22;63674;48.048;8.306;2023-02-11T08:46:46;-3.20;99.90
75091;DHT22;63674;48.048;8.306;2023-02-11T08:49:15;-3.10;99.90
75091;DHT22;63674;48.048;8.306;2023-02-11T08:51:44;-3.10;99.90
75091;DHT22;63674;48.048;8.306;2023-02-11T08:54:13;-3.20;99.90
75091;DHT22;63674;48.048;8.306;2023-02-11T08:56:42;-3.10;99.90
75091;DHT22;63674;48.048;8.306;2023-02-11T08:59:13;-3.00;99.90
75091;DHT22;63674;48.048;8.306;2023-02-11T09:01:43;-2.90;99.90
75091;DHT22;63674;48.048;8.306;2023-02-11T09:04:13;-2.80;99.90
75091;DHT22;63674;48.048;8.306;2023-02-11T09:06:42;-2.70;99.90
75091;DHT22;63674;48.048;8.306;2023-02-11T09:09:11;-2.60;99.90
75091;DHT22;63674;48.048;8.306;2023-02-11T09:11:43;-2.60;99.90
75091;DHT22;63674;48.048;8.306;2023-02-11T09:14:18;-2.60;99.90
75091;DHT22;63674;48.048;8.306;2023-02-11T09:16:48;-2.60;99.90
75091;DHT22;63674;48.048;8.306;2023-02-11T09:19:18;-2.60;99.90
75091;DHT22;63674;48.048;8.306;2023-02-11T09:21:47;-2.70;99.90
75091;DHT22;63674;48.048;8.306;2023-02-11T09:24:16;-2.70;99.90
75091;DHT22;63674;48.048;8.306;2023-02-11T09:26:45;-2.60;99.90
75091;DHT22;63674;48.048;8.306;2023-02-11T09:29:16;-2.60;99.90
75091;DHT22;63674;48.048;8.306;2023-02-11T09:31:45;-2.50;99.90
75091;DHT22;63674;48.048;8.306;2023-02-11T09:34:14;-2.50;99.90
75091;DHT22;63674;48.048;8.306;2023-02-11T09:36:43;-2.40;99.90
75091;DHT22;63674;48.048;8.306;2023-02-11T09:39:14;-2.30;99.90
75091;DHT22;63674;48.048;8.306;2023-02-11T09:42:09;-2.10;99.90
75091;DHT22;63674;48.048;8.306;2023-02-11T09:45:04;-2.10;99.90
75091;DHT22;63674;48.048;8.306;2023-02-11T09:47:47;-1.90;99.90
75091;DHT22;63674;48.048;8.306;2023-02-11T09:50:21;-1.70;99.90
75091;DHT22;63674;48.048;8.306;2023-02-11T09:52:55;-1.50;99.90
75091;DHT22;63674;48.048;8.306;2023-02-11T09:55:28;-1.40;99.90
75091;DHT22;63674;48.048;8.306;2023-02-11T09:57:57;-1.40;99.90
75091;DHT22;63674;48.048;8.306;2023-02-11T10:00:32;-1.40;99.90
75091;DHT22;63674;48.048;8.306;2023-02-11T10:03:36;-1.40;99.90
75091;DHT22;63674;48.048;8.306;2023-02-11T10:06:19;-1.50;99.90
75091;DHT22;63674;48.048;8.306;2023-02-11T10:09:03;-1.40;99.90
75091;DHT22;63674;48.048;8.306;2023-02-11T10:11:50;-1.40;99.90
75091;DHT22;63674;48.048;8.306;2023-02-11T10:14:37;-1.40;99.90
75091;DHT22;63674;48.048;8.306;2023-02-11T10:17:28;-1.20;99.90
75091;DHT22;63674;48.048;8.306;2023-02-11T10:20:10;-1.10;99.90
75091;DHT22;63674;48.048;8.306;2023-02-11T10:22:48;-1.00;99.90
75091;DHT22;63674;48.048;8.306;2023-02-11T10:25:21;-0.70;99.90
75091;DHT22;63674;48.048;8.306;2023-02-11T10:27:51;-0.60;99.90
75091;DHT22;63674;48.048;8.306;2023-02-11T10:30:27;-0.30;99.90
75091;DHT22;63674;48.048;8.306;2023-02-11T10:33:01;-0.30;99.90
75091;DHT22;63674;48.048;8.306;2023-02-11T10:35:31;0.00;99.90
75091;DHT22;63674;48.048;8.306;2023-02-11T10:38:00;0.00;99.90
75091;DHT22;63674;48.048;8.306;2023-02-11T10:40:30;0.20;99.90
75091;DHT22;63674;48.048;8.306;2023-02-11T10:43:03;0.40;99.90
75091;DHT22;63674;48.048;8.306;2023-02-11T10:45:35;0.70;99.90
75091;DHT22;63674;48.048;8.306;2023-02-11T10:48:38;0.70;99.90
75091;DHT22;63674;48.048;8.306;2023-02-11T10:51:17;0.90;99.90
75091;DHT22;63674;48.048;8.306;2023-02-11T10:53:48;1.00;99.90
75091;DHT22;63674;48.048;8.306;2023-02-11T10:56:24;1.20;99.90
75091;DHT22;63674;48.048;8.306;2023-02-11T10:58:58;1.30;99.90
75091;DHT22;63674;48.048;8.306;2023-02-11T11:01:39;1.50;99.90
75091;DHT22;63674;48.048;8.306;2023-02-11T11:04:37;1.60;99.90
75091;DHT22;63674;48.048;8.306;2023-02-11T11:07:17;1.70;99.90
75091;DHT22;63674;48.048;8.306;2023-02-11T11:09:50;1.90;99.90
75091;DHT22;63674;48.048;8.306;2023-02-11T11:12:28;2.00;99.90
75091;DHT22;63674;48.048;8.306;2023-02-11T11:15:14;2.20;99.90
75091;DHT22;63674;48.048;8.306;2023-02-11T11:17:46;2.30;99.90
75091;DHT22;63674;48.048;8.306;2023-02-11T11:20:20;2.60;99.90
75091;DHT22;63674;48.048;8.306;2023-02-11T11:22:53;2.90;99.90
75091;DHT22;63674;48.048;8.306;2023-02-11T11:25:38;3.10;99.90
75091;DHT22;63674;48.048;8.306;2023-02-11T11:28:19;3.10;99.90
75091;DHT22;63674;48.048;8.306;2023-02-11T11:30:51;3.40;99.90
75091;DHT22;63674;48.048;8.306;2023-02-11T11:33:23;3.60;99.90
75091;DHT22;63674;48.048;8.306;2023-02-11T11:36:01;3.80;99.90
75091;DHT22;63674;48.048;8.306;2023-02-11T11:38:32;3.90;99.90
75091;DHT22;63674;48.048;8.306;2023-02-11T11:41:14;3.90;99.90
75091;DHT22;63674;48.048;8.306;2023-02-11T11:43:59;4.00;98.40
75091;DHT22;63674;48.048;8.306;2023-02-11T11:46:32;4.10;95.30
75091;DHT22;63674;48.048;8.306;2023-02-11T11:49:11;4.40;98.90
75091;DHT22;63674;48.048;8.306;2023-02-11T11:51:51;4.40;96.40
75091;DHT22;63674;48.048;8.306;2023-02-11T11:54:24;4.40;98.90
75091;DHT22;63674;48.048;8.306;2023-02-11T11:56:59;4.40;99.90
75091;DHT22;63674;48.048;8.306;2023-02-11T11:59:29;4.60;99.90
75091;DHT22;63674;48.048;8.306;2023-02-11T12:02:18;4.90;98.50
75091;DHT22;63674;48.048;8.306;2023-02-11T12:05:06;5.60;80.80
75091;DHT22;63674;48.048;8.306;2023-02-11T12:07:49;5.70;76.00
75091;DHT22;63674;48.048;8.306;2023-02-11T12:10:37;6.20;70.80
75091;DHT22;63674;48.048;8.306;2023-02-11T12:13:21;6.40;71.80
75091;DHT22;63674;48.048;8.306;2023-02-11T12:16:03;6.70;67.00
75091;DHT22;63674;48.048;8.306;2023-02-11T12:18:49;6.80;63.60
75091;DHT22;63674;48.048;8.306;2023-02-11T12:21:42;6.60;70.90
75091;DHT22;63674;48.048;8.306;2023-02-11T12:24:29;6.70;68.70
75091;DHT22;63674;48.048;8.306;2023-02-11T12:27:15;6.80;67.40
75091;DHT22;63674;48.048;8.306;2023-02-11T12:29:58;7.20;67.10
75091;DHT22;63674;48.048;8.306;2023-02-11T12:32:34;7.20;66.90
75091;DHT22;63674;48.048;8.306;2023-02-11T12:35:32;7.10;69.40
75091;DHT22;63674;48.048;8.306;2023-02-11T12:38:27;7.10;63.30
75091;DHT22;63674;48.048;8.306;2023-02-11T12:41:17;7.50;57.90
75091;DHT22;63674;48.048;8.306;2023-02-11T12:44:21;7.80;57.30
75091;DHT22;63674;48.048;8.306;2023-02-11T12:46:55;7.90;56.20
75091;DHT22;63674;48.048;8.306;2023-02-11T12:49:43;7.90;54.20
75091;DHT22;63674;48.048;8.306;2023-02-11T12:52:30;8.00;51.60
75091;DHT22;63674;48.048;8.306;2023-02-11T12:55:12;7.80;57.70
75091;DHT22;63674;48.048;8.306;2023-02-11T12:57:50;7.60;55.30
75091;DHT22;63674;48.048;8.306;2023-02-11T13:00:22;7.50;56.90
75091;DHT22;63674;48.048;8.306;2023-02-11T13:02:55;7.80;51.80
75091;DHT22;63674;48.048;8.306;2023-02-11T13:05:30;8.00;52.40
75091;DHT22;63674;48.048;8.306;2023-02-11T13:08:07;8.10;53.10
75091;DHT22;63674;48.048;8.306;2023-02-11T13:10:41;8.00;51.00
75091;DHT22;63674;48.048;8.306;2023-02-11T13:13:18;8.00;50.80
75091;DHT22;63674;48.048;8.306;2023-02-11T13:15:53;7.90;49.20
75091;DHT22;63674;48.048;8.306;2023-02-11T13:18:34;7.90;50.30
75091;DHT22;63674;48.048;8.306;2023-02-11T13:21:22;8.00;53.20
75091;DHT22;63674;48.048;8.306;2023-02-11T13:24:03;8.00;50.90
75091;DHT22;63674;48.048;8.306;2023-02-11T13:26:41;7.90;48.80
75091;DHT22;63674;48.048;8.306;2023-02-11T13:29:31;7.80;51.70
75091;DHT22;63674;48.048;8.306;2023-02-11T13:32:09;7.70;49.80
75091;DHT22;63674;48.048;8.306;2023-02-11T13:34:56;7.80;49.40
75091;DHT22;63674;48.048;8.306;2023-02-11T13:37:29;7.60;48.80
75091;DHT22;63674;48.048;8.306;2023-02-11T13:40:03;8.00;44.80
75091;DHT22;63674;48.048;8.306;2023-02-11T13:42:47;7.90;50.10
75091;DHT22;63674;48.048;8.306;2023-02-11T13:45:27;8.00;46.60
75091;DHT22;63674;48.048;8.306;2023-02-11T13:47:59;8.00;46.90
75091;DHT22;63674;48.048;8.306;2023-02-11T13:50:34;8.10;47.00
75091;DHT22;63674;48.048;8.306;2023-02-11T13:53:06;7.90;50.00
75091;DHT22;63674;48.048;8.306;2023-02-11T13:55:35;7.80;45.00
75091;DHT22;63674;48.048;8.306;2023-02-11T13:58:25;7.80;45.60
75091;DHT22;63674;48.048;8.306;2023-02-11T14:01:05;7.70;49.00
75091;DHT22;63674;48.048;8.306;2023-02-11T14:03:36;7.70;47.00
75091;DHT22;63674;48.048;8.306;2023-02-11T14:06:26;7.70;49.60
75091;DHT22;63674;48.048;8.306;2023-02-11T14:09:38;7.70;48.30
75091;DHT22;63674;48.048;8.306;2023-02-11T14:12:34;7.60;51.30
75091;DHT22;63674;48.048;8.306;2023-02-11T14:15:25;7.80;47.20
75091;DHT22;63674;48.048;8.306;2023-02-11T14:17:55;7.70;49.30
75091;DHT22;63674;48.048;8.306;2023-02-11T14:20:43;7.60;49.30
75091;DHT22;63674;48.048;8.306;2023-02-11T14:23:30;7.50;47.60
75091;DHT22;63674;48.048;8.306;2023-02-11T14:29:00;7.40;49.40
75091;DHT22;63674;48.048;8.306;2023-02-11T14:31:38;7.40;49.10
75091;DHT22;63674;48.048;8.306;2023-02-11T14:34:35;7.40;48.00
75091;DHT22;63674;48.048;8.306;2023-02-11T14:37:19;7.60;49.40
75091;DHT22;63674;48.048;8.306;2023-02-11T14:40:06;7.60;46.90
75091;DHT22;63674;48.048;8.306;2023-02-11T14:42:41;7.60;47.70
75091;DHT22;63674;48.048;8.306;2023-02-11T14:45:17;7.40;48.10
75091;DHT22;63674;48.048;8.306;2023-02-11T14:47:50;7.40;46.50
75091;DHT22;63674;48.048;8.306;2023-02-11T14:50:25;7.30;52.80
75091;DHT22;63674;48.048;8.306;2023-02-11T14:52:58;7.20;50.90
75091;DHT22;63674;48.048;8.306;2023-02-11T14:55:31;7.20;54.40
75091;DHT22;63674;48.048;8.306;2023-02-11T14:58:06;7.10;62.30
75091;DHT22;63674;48.048;8.306;2023-02-11T15:00:47;6.90;61.60
75091;DHT22;63674;48.048;8.306;2023-02-11T15:03:29;6.90;52.20
75091;DHT22;63674;48.048;8.306;2023-02-11T15:06:04;6.80;62.70
75091;DHT22;63674;48.048;8.306;2023-02-11T15:08:36;6.70;60.80
75091;DHT22;63674;48.048;8.306;2023-02-11T15:11:10;6.60;67.10
75091;DHT22;63674;48.048;8.306;2023-02-11T15:13:39;6.60;57.90
75091;DHT22;63674;48.048;8.306;2023-02-11T15:16:14;6.60;61.50
75091;DHT22;63674;48.048;8.306;2023-02-11T15:18:47;6.50;63.50
75091;DHT22;63674;48.048;8.306;2023-02-11T15:21:22;6.40;65.90
75091;DHT22;63674;48.048;8.306;2023-02-11T15:23:58;6.30;65.30
75091;DHT22;63674;48.048;8.306;2023-02-11T15:26:29;6.10;67.10
75091;DHT22;63674;48.048;8.306;2023-02-11T15:28:58;6.00;69.50
75091;DHT22;63674;48.048;8.306;2023-02-11T15:31:27;5.80;70.70
75091;DHT22;63674;48.048;8.306;2023-02-11T15:34:06;5.70;71.60
75091;DHT22;63674;48.048;8.306;2023-02-11T15:36:37;5.50;72.70
75091;DHT22;63674;48.048;8.306;2023-02-11T15:39:18;5.40;75.00
75091;DHT22;63674;48.048;8.306;2023-02-11T15:41:55;5.20;74.10
75091;DHT22;63674;48.048;8.306;2023-02-11T15:44:28;5.00;75.90
75091;DHT22;63674;48.048;8.306;2023-02-11T15:47:19;4.90;77.70
75091;DHT22;63674;48.048;8.306;2023-02-11T15:49:48;4.80;77.50
75091;DHT22;63674;48.048;8.306;2023-02-11T15:52:24;4.80;77.50
75091;DHT22;63674;48.048;8.306;2023-02-11T15:54:55;4.60;78.70
75091;DHT22;63674;48.048;8.306;2023-02-11T15:57:26;4.50;81.80
75091;DHT22;63674;48.048;8.306;2023-02-11T15:59:55;4.30;83.20
75091;DHT22;63674;48.048;8.306;2023-02-11T16:02:31;4.10;86.00
75091;DHT22;63674;48.048;8.306;2023-02-11T16:05:04;4.10;88.70
75091;DHT22;63674;48.048;8.306;2023-02-11T16:07:44;4.10;93.40
75091;DHT22;63674;48.048;8.306;2023-02-11T16:10:19;4.00;93.80
75091;DHT22;63674;48.048;8.306;2023-02-11T16:12:51;3.90;91.30
75091;DHT22;63674;48.048;8.306;2023-02-11T16:15:42;3.70;90.50
75091;DHT22;63674;48.048;8.306;2023-02-11T16:18:31;3.50;91.00
75091;DHT22;63674;48.048;8.306;2023-02-11T16:21:12;3.40;94.00
75091;DHT22;63674;48.048;8.306;2023-02-11T16:23:50;3.20;93.50
75091;DHT22;63674;48.048;8.306;2023-02-11T16:26:23;3.10;92.90
75091;DHT22;63674;48.048;8.306;2023-02-11T16:29:05;2.90;99.90
75091;DHT22;63674;48.048;8.306;2023-02-11T16:31:37;2.80;97.10